createdAt,value
2018-11-25T00:00:18.191Z,7.19
2018-11-25T00:02:30.459Z,7.23
2018-11-25T00:04:42.651Z,7.19
2018-11-25T00:06:54.856Z,7.20
2018-11-25T00:09:07.832Z,7.18
2018-11-25T00:11:20.053Z,7.19
2018-11-25T00:13:32.299Z,7.24
2018-11-25T00:15:44.475Z,7.23
2018-11-25T00:17:56.719Z,7.15
2018-11-25T00:20:11.749Z,7.10
2018-11-25T00:22:23.947Z,7.12
2018-11-25T00:24:36.152Z,7.08
2018-11-25T00:26:48.303Z,7.08
2018-11-25T00:29:00.539Z,7.07
2018-11-25T00:31:12.728Z,7.11
2018-11-25T00:33:24.901Z,7.06
2018-11-25T00:35:37.095Z,7.03
2018-11-25T00:37:49.276Z,6.99
2018-11-25T00:40:01.492Z,6.93
2018-11-25T00:42:13.671Z,6.87
2018-11-25T00:44:25.864Z,6.76
2018-11-25T00:46:38.052Z,6.72
2018-11-25T00:48:50.267Z,6.68
2018-11-25T00:51:02.493Z,6.65
2018-11-25T00:53:14.644Z,6.58
2018-11-25T00:55:26.888Z,6.48
2018-11-25T00:57:39.095Z,6.38
2018-11-25T00:59:51.303Z,6.24
2018-11-25T01:02:03.599Z,6.16
2018-11-25T01:04:15.785Z,6.09
2018-11-25T01:06:27.973Z,5.96
2018-11-25T01:08:40.163Z,5.80
2018-11-25T01:10:52.924Z,5.68
2018-11-25T01:13:05.184Z,5.56
2018-11-25T01:15:17.668Z,5.50
2018-11-25T01:17:29.887Z,5.49
2018-11-25T01:19:42.083Z,5.48
2018-11-25T01:21:54.265Z,5.44
2018-11-25T01:24:06.436Z,5.41
2018-11-25T01:26:18.650Z,5.36
2018-11-25T01:28:30.839Z,5.30
2018-11-25T01:30:43.043Z,5.22
2018-11-25T01:32:55.205Z,5.12
2018-11-25T01:35:08.532Z,5.06
2018-11-25T01:37:20.756Z,4.94
2018-11-25T01:39:32.967Z,4.89
2018-11-25T01:41:45.133Z,4.85
2018-11-25T01:43:57.306Z,4.82
2018-11-25T01:46:09.525Z,4.80
2018-11-25T01:48:21.691Z,4.76
2018-11-25T01:50:33.864Z,4.79
2018-11-25T01:52:46.601Z,4.82
2018-11-25T01:54:58.758Z,4.83
2018-11-25T01:57:10.945Z,4.83
2018-11-25T01:59:23.128Z,4.80
2018-11-25T02:01:35.316Z,4.92
2018-11-25T02:03:47.534Z,4.98
2018-11-25T02:05:59.711Z,5.00
2018-11-25T02:08:11.921Z,4.99
2018-11-25T02:10:24.140Z,5.02
2018-11-25T02:12:36.364Z,5.07
2018-11-25T02:14:48.611Z,5.02
2018-11-25T02:17:00.847Z,4.92
2018-11-25T02:19:13.028Z,5.01
2018-11-25T02:21:25.214Z,5.03
2018-11-25T02:23:37.409Z,5.15
2018-11-25T02:25:49.596Z,5.16
2018-11-25T02:28:01.808Z,5.12
2018-11-25T02:30:14.893Z,5.12
2018-11-25T02:32:27.048Z,5.09
2018-11-25T02:34:39.216Z,5.07
2018-11-25T02:36:51.400Z,5.06
2018-11-25T02:39:05.361Z,5.07
2018-11-25T02:41:17.552Z,5.13
2018-11-25T02:43:29.748Z,5.11
2018-11-25T02:45:41.934Z,5.09
2018-11-25T02:47:54.107Z,5.12
2018-11-25T02:50:25.092Z,5.11
2018-11-25T02:52:37.276Z,5.06
2018-11-25T02:54:49.446Z,5.10
2018-11-25T02:57:01.660Z,5.13
2018-11-25T02:59:13.896Z,5.16
2018-11-25T03:01:26.036Z,5.20
2018-11-25T03:03:38.213Z,5.16
2018-11-25T03:05:50.438Z,5.16
2018-11-25T03:08:02.623Z,5.12
2018-11-25T03:10:14.836Z,5.13
2018-11-25T03:12:27.036Z,5.10
2018-11-25T03:14:39.206Z,5.11
2018-11-25T03:16:51.445Z,5.07
2018-11-25T03:19:03.644Z,5.00
2018-11-25T03:21:15.837Z,4.90
2018-11-25T03:23:27.960Z,4.80
2018-11-25T03:25:40.168Z,4.70
2018-11-25T03:27:52.362Z,4.64
2018-11-25T03:30:08.747Z,4.63
2018-11-25T03:32:20.936Z,4.61
2018-11-25T03:34:33.079Z,4.51
2018-11-25T03:36:45.238Z,4.35
2018-11-25T03:38:57.421Z,4.07
2018-11-25T03:41:09.628Z,3.92
2018-11-25T03:43:21.807Z,3.68
2018-11-25T03:45:33.974Z,3.62
2018-11-25T03:47:46.209Z,3.48
2018-11-25T03:49:58.404Z,3.45
2018-11-25T03:52:10.576Z,3.42
2018-11-25T03:54:22.750Z,3.41
2018-11-25T03:56:34.901Z,3.33
2018-11-25T03:58:47.093Z,3.28
2018-11-25T04:00:59.300Z,3.21
2018-11-25T04:03:11.484Z,3.20
2018-11-25T04:05:23.643Z,3.22
2018-11-25T04:07:35.835Z,3.18
2018-11-25T04:09:48.046Z,3.16
2018-11-25T04:12:00.226Z,3.09
2018-11-25T04:14:12.436Z,3.02
2018-11-25T04:16:24.623Z,2.96
2018-11-25T04:18:36.803Z,2.84
2018-11-25T04:20:48.980Z,2.74
2018-11-25T04:23:01.148Z,2.64
2018-11-25T04:25:13.488Z,2.56
2018-11-25T04:27:25.652Z,2.49
2018-11-25T04:29:37.867Z,2.47
2018-11-25T04:31:50.043Z,2.42
2018-11-25T04:34:02.227Z,2.44
2018-11-25T04:36:14.464Z,2.47
2018-11-25T04:38:26.639Z,2.50
2018-11-25T04:40:38.868Z,2.49
2018-11-25T04:42:51.278Z,2.45
2018-11-25T04:45:03.756Z,2.39
2018-11-25T04:47:15.966Z,2.31
2018-11-25T04:49:28.112Z,2.26
2018-11-25T04:51:40.295Z,2.22
2018-11-25T04:53:52.480Z,2.26
2018-11-25T04:56:05.263Z,2.27
2018-11-25T04:58:17.431Z,2.27
2018-11-25T05:00:29.656Z,2.28
2018-11-25T05:02:41.836Z,2.22
2018-11-25T05:04:54.037Z,2.20
2018-11-25T05:07:06.530Z,2.16
2018-11-25T05:09:18.759Z,2.12
2018-11-25T05:11:30.938Z,2.03
2018-11-25T05:13:43.110Z,1.91
2018-11-25T05:15:55.363Z,1.87
2018-11-25T05:18:07.559Z,1.80
2018-11-25T05:20:19.970Z,1.69
2018-11-25T05:22:32.164Z,1.64
2018-11-25T05:24:44.379Z,1.60
2018-11-25T05:26:56.561Z,1.57
2018-11-25T05:29:08.755Z,1.56
2018-11-25T05:31:20.916Z,1.54
2018-11-25T05:33:33.098Z,1.49
2018-11-25T05:35:45.293Z,1.50
2018-11-25T05:37:57.490Z,1.49
2018-11-25T05:40:10.551Z,1.52
2018-11-25T05:42:22.751Z,1.57
2018-11-25T05:44:34.979Z,1.63
2018-11-25T05:46:47.146Z,1.66
2018-11-25T05:48:59.327Z,1.72
2018-11-25T05:51:11.495Z,1.67
2018-11-25T05:53:23.689Z,1.65
2018-11-25T05:55:35.856Z,1.60
2018-11-25T05:57:48.053Z,1.57
2018-11-25T06:00:00.254Z,1.54
2018-11-25T06:02:12.457Z,1.41
2018-11-25T06:04:24.639Z,1.36
2018-11-25T06:06:36.812Z,1.35
2018-11-25T06:08:49.023Z,1.35
2018-11-25T06:11:01.237Z,1.34
2018-11-25T06:13:13.399Z,1.29
2018-11-25T06:15:25.580Z,1.28
2018-11-25T06:17:37.755Z,1.31
2018-11-25T06:19:49.947Z,1.34
2018-11-25T06:22:02.110Z,1.35
2018-11-25T06:24:14.335Z,1.33
2018-11-25T06:26:26.520Z,1.23
2018-11-25T06:28:38.764Z,1.16
2018-11-25T06:30:50.943Z,1.07
2018-11-25T06:33:03.115Z,1.04
2018-11-25T06:35:16.250Z,1.06
2018-11-25T06:37:28.427Z,0.96
2018-11-25T06:39:40.618Z,0.91
2018-11-25T06:41:52.818Z,0.93
2018-11-25T06:44:05.432Z,1.00
2018-11-25T06:46:17.624Z,1.05
2018-11-25T06:48:29.815Z,1.08
2018-11-25T06:50:42.027Z,1.11
2018-11-25T06:52:54.258Z,1.14
2018-11-25T06:55:07.872Z,1.13
2018-11-25T06:57:20.061Z,1.05
2018-11-25T06:59:32.224Z,0.99
2018-11-25T07:01:44.408Z,0.95
2018-11-25T07:03:56.579Z,0.95
2018-11-25T07:06:08.789Z,0.98
2018-11-25T07:08:20.943Z,0.99
2018-11-25T07:10:33.178Z,0.99
2018-11-25T07:12:45.606Z,1.00
2018-11-25T07:14:57.800Z,1.01
2018-11-25T07:17:10.008Z,1.04
2018-11-25T07:19:22.201Z,1.06
2018-11-25T07:21:34.431Z,1.11
2018-11-25T07:23:46.635Z,1.17
2018-11-25T07:25:58.869Z,1.20
2018-11-25T07:28:18.314Z,1.22
2018-11-25T07:30:24.254Z,1.19
2018-11-25T07:32:36.469Z,1.19
2018-11-25T07:34:48.673Z,1.17
2018-11-25T07:37:00.872Z,1.19
2018-11-25T07:39:13.117Z,1.26
2018-11-25T07:41:25.285Z,1.32
2018-11-25T07:43:37.507Z,1.38
2018-11-25T07:45:49.809Z,1.49
2018-11-25T07:48:02.044Z,2.06
2018-11-25T07:50:14.321Z,2.96
2018-11-25T07:52:26.524Z,3.09
2018-11-25T07:54:38.732Z,3.50
2018-11-25T07:56:50.960Z,3.84
2018-11-25T07:59:03.168Z,3.97
2018-11-25T08:01:15.384Z,4.23
2018-11-25T08:03:27.587Z,4.28
2018-11-25T08:05:39.806Z,4.39
2018-11-25T08:07:51.961Z,4.45
2018-11-25T08:10:06.875Z,4.51
2018-11-25T08:12:19.096Z,4.67
2018-11-25T08:14:31.299Z,4.83
2018-11-25T08:16:43.504Z,4.90
2018-11-25T08:18:55.699Z,5.00
2018-11-25T08:21:07.952Z,5.02
2018-11-25T08:23:20.142Z,5.11
2018-11-25T08:25:32.404Z,5.23
2018-11-25T08:27:44.638Z,5.33
2018-11-25T08:29:56.868Z,5.41
2018-11-25T08:32:09.122Z,5.53
2018-11-25T08:34:21.379Z,5.73
2018-11-25T08:36:33.511Z,5.99
2018-11-25T08:38:45.773Z,6.28
2018-11-25T08:40:57.972Z,6.64
2018-11-25T08:43:10.170Z,6.85
2018-11-25T08:45:22.438Z,7.01
2018-11-25T08:47:34.624Z,7.10
2018-11-25T08:49:46.857Z,7.18
2018-11-25T08:51:59.123Z,7.40
2018-11-25T08:54:11.332Z,7.62
2018-11-25T08:56:23.595Z,7.86
2018-11-25T08:58:35.788Z,8.09
2018-11-25T09:00:48.136Z,8.28
2018-11-25T09:03:00.335Z,8.49
2018-11-25T09:05:13.638Z,8.74
2018-11-25T09:07:25.868Z,8.87
2018-11-25T09:09:38.128Z,8.94
2018-11-25T09:11:50.363Z,9.01
2018-11-25T09:14:02.658Z,9.15
2018-11-25T09:16:14.897Z,9.32
2018-11-25T09:18:27.161Z,9.48
2018-11-25T09:20:39.365Z,9.57
2018-11-25T09:22:51.999Z,9.61
2018-11-25T09:25:05.177Z,9.42
2018-11-25T09:27:17.470Z,9.47
2018-11-25T09:29:29.672Z,9.33
2018-11-25T09:31:41.977Z,9.19
2018-11-25T09:33:54.163Z,9.18
2018-11-25T09:36:06.419Z,8.90
2018-11-25T09:38:18.672Z,8.70
2018-11-25T09:40:30.901Z,8.74
2018-11-25T09:42:43.169Z,8.88
2018-11-25T09:44:55.363Z,9.08
2018-11-25T09:47:07.640Z,9.23
2018-11-25T09:49:19.859Z,9.44
2018-11-25T09:51:32.061Z,9.65
2018-11-25T09:53:44.268Z,9.75
2018-11-25T09:55:56.455Z,9.97
2018-11-25T09:58:08.658Z,10.14
2018-11-25T10:00:23.854Z,10.27
2018-11-25T10:02:36.055Z,10.36
2018-11-25T10:04:48.287Z,10.38
2018-11-25T10:07:00.573Z,10.35
2018-11-25T10:09:12.828Z,10.42
2018-11-25T10:11:25.108Z,10.51
2018-11-25T10:13:37.353Z,10.47
2018-11-25T10:15:49.591Z,10.61
2018-11-25T10:18:01.855Z,10.58
2018-11-25T10:20:15.228Z,10.53
2018-11-25T10:22:27.440Z,10.56
2018-11-25T10:24:39.668Z,10.59
2018-11-25T10:26:51.894Z,10.55
2018-11-25T10:29:04.168Z,10.56
2018-11-25T10:31:16.387Z,10.57
2018-11-25T10:33:28.582Z,10.45
2018-11-25T10:35:40.819Z,10.54
2018-11-25T10:37:53.114Z,10.58
2018-11-25T10:40:09.353Z,10.60
2018-11-25T10:42:21.559Z,10.61
2018-11-25T10:44:33.754Z,10.60
2018-11-25T10:46:46.023Z,10.54
2018-11-25T10:48:58.246Z,10.46
2018-11-25T10:51:10.503Z,10.60
2018-11-25T10:53:22.705Z,10.63
2018-11-25T10:55:35.013Z,10.73
2018-11-25T10:57:49.000Z,10.82
2018-11-25T11:00:01.237Z,10.77
2018-11-25T11:02:18.836Z,10.79
2018-11-25T11:04:36.692Z,10.81
2018-11-25T11:06:54.600Z,10.89
2018-11-25T11:09:06.857Z,10.86
2018-11-25T11:11:19.099Z,10.81
2018-11-25T11:13:31.329Z,11.00
2018-11-25T11:15:43.608Z,11.35
2018-11-25T11:17:55.836Z,11.48
2018-11-25T11:20:09.330Z,11.41
2018-11-25T11:22:21.537Z,11.34
2018-11-25T11:24:33.745Z,11.30
2018-11-25T11:26:46.036Z,11.38
2018-11-25T11:28:58.223Z,11.37
2018-11-25T11:31:13.438Z,11.25
2018-11-25T11:33:22.724Z,11.26
2018-11-25T11:35:34.947Z,11.17
2018-11-25T11:37:47.246Z,11.21
2018-11-25T11:39:59.547Z,11.21
2018-11-25T11:42:11.719Z,11.20
2018-11-25T11:44:23.987Z,11.21
2018-11-25T11:46:36.235Z,11.16
2018-11-25T11:48:48.463Z,11.16
2018-11-25T11:51:00.670Z,11.20
2018-11-25T11:53:12.914Z,11.23
2018-11-25T11:55:25.191Z,11.27
2018-11-25T11:57:37.484Z,11.20
2018-11-25T11:59:49.767Z,11.17
2018-11-25T12:02:01.964Z,11.23
2018-11-25T12:04:14.200Z,11.14
2018-11-25T12:06:26.512Z,11.09
2018-11-25T12:08:38.709Z,11.09
2018-11-25T12:10:50.944Z,11.05
2018-11-25T12:13:03.365Z,11.06
2018-11-25T12:15:30.333Z,11.08
2018-11-25T12:17:36.188Z,11.02
2018-11-25T12:19:48.432Z,11.01
2018-11-25T12:22:00.693Z,11.02
2018-11-25T12:24:12.915Z,11.03
2018-11-25T12:26:25.152Z,11.03
2018-11-25T12:28:37.353Z,11.00
2018-11-25T12:30:49.599Z,11.03
2018-11-25T12:33:01.821Z,10.99
2018-11-25T12:35:15.077Z,11.04
2018-11-25T12:37:27.298Z,11.06
2018-11-25T12:39:39.594Z,11.08
2018-11-25T12:41:51.867Z,11.04
2018-11-25T12:44:04.110Z,11.04
2018-11-25T12:46:16.344Z,11.07
2018-11-25T12:48:28.572Z,11.07
2018-11-25T12:50:40.799Z,11.15
2018-11-25T12:52:53.242Z,11.08
2018-11-25T12:55:07.831Z,11.03
2018-11-25T12:57:20.096Z,11.02
2018-11-25T12:59:32.324Z,11.03
2018-11-25T13:01:44.564Z,11.08
2018-11-25T13:03:56.778Z,11.14
2018-11-25T13:06:09.031Z,11.13
2018-11-25T13:08:21.236Z,11.09
2018-11-25T13:10:33.487Z,11.08
2018-11-25T13:12:45.744Z,11.03
2018-11-25T13:14:57.982Z,10.99
2018-11-25T13:17:10.255Z,10.99
2018-11-25T13:19:22.436Z,11.05
2018-11-25T13:21:34.662Z,11.07
2018-11-25T13:23:46.932Z,10.98
2018-11-25T13:25:59.201Z,10.97
2018-11-25T13:28:11.420Z,10.93
2018-11-25T13:30:24.850Z,10.82
2018-11-25T13:32:37.048Z,10.87
2018-11-25T13:34:49.262Z,10.90
2018-11-25T13:37:01.519Z,10.88
2018-11-25T13:39:13.796Z,10.88
2018-11-25T13:41:26.056Z,10.89
2018-11-25T13:43:38.327Z,10.85
2018-11-25T13:45:50.526Z,10.78
2018-11-25T13:48:02.832Z,10.76
2018-11-25T13:50:15.131Z,10.81
2018-11-25T13:52:27.350Z,10.75
2018-11-25T13:54:39.593Z,10.72
2018-11-25T13:56:51.820Z,10.64
2018-11-25T13:59:04.445Z,10.68
2018-11-25T14:01:16.666Z,10.66
2018-11-25T14:03:33.559Z,10.64
2018-11-25T14:05:52.519Z,10.60
2018-11-25T14:07:58.128Z,10.59
2018-11-25T14:10:14.053Z,10.56
2018-11-25T14:12:26.288Z,10.61
2018-11-25T14:14:38.537Z,10.56
2018-11-25T14:16:50.840Z,10.57
2018-11-25T14:19:03.022Z,10.58
2018-11-25T14:21:15.751Z,10.57
2018-11-25T14:23:27.496Z,10.52
2018-11-25T14:25:40.601Z,10.53
2018-11-25T14:27:54.030Z,10.52
2018-11-25T14:30:13.410Z,10.55
2018-11-25T14:32:24.601Z,10.49
2018-11-25T14:34:36.879Z,10.41
2018-11-25T14:36:49.157Z,10.33
2018-11-25T14:39:01.399Z,10.22
2018-11-25T14:41:13.625Z,10.17
2018-11-25T14:43:25.866Z,10.12
2018-11-25T14:45:38.127Z,10.04
2018-11-25T14:47:50.328Z,9.97
2018-11-25T14:50:03.083Z,9.85
2018-11-25T14:52:15.298Z,9.86
2018-11-25T14:54:27.547Z,9.78
2018-11-25T14:56:39.820Z,9.64
2018-11-25T14:58:52.086Z,9.53
2018-11-25T15:01:04.567Z,9.38
2018-11-25T15:03:16.767Z,9.17
2018-11-25T15:05:37.495Z,8.98
2018-11-25T15:07:49.766Z,8.75
2018-11-25T15:10:02.021Z,8.49
2018-11-25T15:12:14.270Z,8.28
2018-11-25T15:14:26.516Z,8.07
2018-11-25T15:16:38.799Z,7.82
2018-11-25T15:18:51.145Z,7.58
2018-11-25T15:21:03.395Z,7.34
2018-11-25T15:23:15.978Z,7.14
2018-11-25T15:25:32.130Z,6.89
2018-11-25T15:27:44.391Z,6.69
2018-11-25T15:29:56.676Z,6.54
2018-11-25T15:32:08.915Z,6.43
2018-11-25T15:34:21.151Z,6.28
2018-11-25T15:36:33.479Z,6.16
2018-11-25T15:38:45.719Z,6.16
2018-11-25T15:40:57.919Z,6.11
2018-11-25T15:43:10.804Z,6.00
2018-11-25T15:45:23.049Z,5.99
2018-11-25T15:47:35.288Z,5.87
2018-11-25T15:49:47.540Z,5.79
2018-11-25T15:51:59.747Z,5.76
2018-11-25T15:54:12.043Z,5.76
2018-11-25T15:56:24.313Z,5.76
2018-11-25T15:58:36.616Z,5.81
2018-11-25T16:00:48.891Z,5.81
2018-11-25T16:03:01.093Z,5.74
2018-11-25T16:05:15.948Z,5.84
2018-11-25T16:07:28.157Z,5.78
2018-11-25T16:09:40.491Z,5.78
2018-11-25T16:11:52.754Z,5.79
2018-11-25T16:14:05.034Z,5.83
2018-11-25T16:16:17.261Z,5.80
2018-11-25T16:18:29.527Z,5.82
2018-11-25T16:20:41.827Z,5.83
2018-11-25T16:22:57.502Z,5.84
2018-11-25T16:25:12.853Z,5.87
2018-11-25T16:27:25.963Z,5.90
2018-11-25T16:29:38.244Z,5.90
2018-11-25T16:31:50.486Z,5.93
2018-11-25T16:34:02.708Z,6.00
2018-11-25T16:36:14.937Z,6.07
2018-11-25T16:38:27.221Z,6.03
2018-11-25T16:40:39.456Z,6.08
2018-11-25T16:42:51.655Z,6.04
2018-11-25T16:45:04.700Z,6.00
2018-11-25T16:47:16.941Z,6.04
2018-11-25T16:49:29.128Z,6.04
2018-11-25T16:51:41.355Z,6.08
2018-11-25T16:53:53.602Z,6.13
2018-11-25T16:56:05.924Z,6.17
2018-11-25T16:58:18.201Z,6.27
2018-11-25T17:00:30.538Z,6.29
2018-11-25T17:02:42.834Z,6.54
2018-11-25T17:04:55.061Z,6.68
2018-11-25T17:07:07.324Z,6.67
2018-11-25T17:09:19.557Z,6.61
2018-11-25T17:11:31.808Z,6.57
2018-11-25T17:13:44.057Z,6.50
2018-11-25T17:15:56.299Z,6.34
2018-11-25T17:18:08.573Z,6.36
2018-11-25T17:20:20.804Z,6.31
2018-11-25T17:22:33.005Z,6.24
2018-11-25T17:24:45.296Z,6.28
2018-11-25T17:26:57.567Z,6.27
2018-11-25T17:29:09.836Z,6.34
2018-11-25T17:31:22.088Z,6.29
2018-11-25T17:33:34.403Z,6.20
2018-11-25T17:35:46.611Z,6.20
2018-11-25T17:37:58.818Z,6.20
2018-11-25T17:40:11.196Z,6.28
2018-11-25T17:42:23.383Z,6.31
2018-11-25T17:44:35.641Z,6.27
2018-11-25T17:46:47.947Z,6.23
2018-11-25T17:49:00.208Z,6.27
2018-11-25T17:51:12.440Z,6.21
2018-11-25T17:53:24.694Z,6.27
2018-11-25T17:55:36.925Z,6.22
2018-11-25T17:57:49.505Z,6.19
2018-11-25T18:00:03.344Z,6.14
2018-11-25T18:02:15.743Z,6.21
2018-11-25T18:04:27.972Z,6.22
2018-11-25T18:06:40.223Z,6.24
2018-11-25T18:08:52.452Z,6.30
2018-11-25T18:11:04.755Z,6.34
2018-11-25T18:13:18.160Z,6.30
2018-11-25T18:15:30.445Z,6.39
2018-11-25T18:17:47.120Z,6.41
2018-11-25T18:19:59.351Z,6.41
2018-11-25T18:22:14.189Z,6.38
2018-11-25T18:24:26.414Z,6.31
2018-11-25T18:26:38.702Z,6.31
2018-11-25T18:28:50.943Z,6.31
2018-11-25T18:31:03.208Z,6.30
2018-11-25T18:33:15.511Z,6.23
2018-11-25T18:35:27.866Z,6.28
2018-11-25T18:37:40.114Z,6.22
2018-11-25T18:39:52.297Z,6.20
2018-11-25T18:42:05.071Z,6.16
2018-11-25T18:44:17.306Z,6.15
2018-11-25T18:46:29.542Z,6.16
2018-11-25T18:48:44.223Z,6.24
2018-11-25T18:50:56.607Z,6.28
2018-11-25T18:53:09.668Z,6.24
2018-11-25T18:55:20.832Z,6.23
2018-11-25T18:57:33.096Z,6.23
2018-11-25T18:59:45.388Z,6.26
2018-11-25T19:02:01.001Z,6.28
2018-11-25T19:04:13.304Z,6.25
2018-11-25T19:06:25.540Z,6.28
2018-11-25T19:08:37.840Z,6.26
2018-11-25T19:10:50.107Z,6.26
2018-11-25T19:13:02.376Z,6.28
2018-11-25T19:15:15.902Z,6.32
2018-11-25T19:17:28.135Z,6.34
2018-11-25T19:19:40.391Z,6.34
2018-11-25T19:21:52.653Z,6.32
2018-11-25T19:24:04.938Z,6.36
2018-11-25T19:26:17.161Z,6.37
2018-11-25T19:28:29.360Z,6.36
2018-11-25T19:30:41.655Z,6.41
2018-11-25T19:32:53.916Z,6.44
2018-11-25T19:35:08.133Z,6.46
2018-11-25T19:37:20.328Z,6.44
2018-11-25T19:39:32.620Z,6.42
2018-11-25T19:41:44.836Z,6.42
2018-11-25T19:43:57.075Z,6.50
2018-11-25T19:46:09.378Z,6.47
2018-11-25T19:48:21.622Z,6.42
2018-11-25T19:50:35.221Z,6.36
2018-11-25T19:52:47.516Z,6.31
2018-11-25T19:54:59.763Z,6.32
2018-11-25T19:57:12.088Z,6.36
2018-11-25T19:59:24.362Z,6.37
2018-11-25T20:01:36.625Z,6.36
2018-11-25T20:03:48.922Z,6.40
2018-11-25T20:06:01.185Z,6.37
2018-11-25T20:08:13.446Z,6.35
2018-11-25T20:10:25.876Z,6.34
2018-11-25T20:12:40.069Z,6.40
2018-11-25T20:14:52.205Z,6.47
2018-11-25T20:17:10.408Z,6.43
2018-11-25T20:19:22.617Z,6.35
2018-11-25T20:21:40.668Z,6.37
2018-11-25T20:23:52.934Z,6.41
2018-11-25T20:26:05.318Z,6.43
2018-11-25T20:28:17.619Z,6.48
2018-11-25T20:30:31.090Z,6.45
2018-11-25T20:32:48.854Z,6.50
2018-11-25T20:35:01.122Z,6.47
2018-11-25T20:37:13.394Z,6.49
2018-11-25T20:39:29.912Z,6.44
2018-11-25T20:41:42.144Z,6.43
2018-11-25T20:43:54.404Z,6.43
2018-11-25T20:47:12.386Z,6.40
2018-11-25T20:49:24.692Z,6.40
2018-11-25T20:51:42.535Z,6.39
2018-11-25T20:53:58.048Z,6.36
2018-11-25T20:56:10.391Z,6.39
2018-11-25T20:58:22.664Z,6.36
2018-11-25T21:00:35.167Z,6.40
2018-11-25T21:02:47.395Z,6.42
2018-11-25T21:04:59.676Z,6.39
2018-11-25T21:07:11.899Z,6.35
2018-11-25T21:09:24.142Z,6.34
2018-11-25T21:11:36.415Z,6.34
2018-11-25T21:13:48.661Z,6.32
2018-11-25T21:16:00.911Z,6.32
2018-11-25T21:18:13.143Z,6.28
2018-11-25T21:20:25.706Z,6.27
2018-11-25T21:22:37.953Z,6.22
2018-11-25T21:24:50.237Z,6.18
2018-11-25T21:27:02.439Z,6.13
2018-11-25T21:29:14.677Z,6.08
2018-11-25T21:31:26.940Z,6.03
2018-11-25T21:33:39.168Z,6.04
2018-11-25T21:35:51.403Z,6.06
2018-11-25T21:38:03.639Z,6.09
2018-11-25T21:40:17.844Z,6.07
2018-11-25T21:42:30.047Z,6.02
2018-11-25T21:44:42.275Z,6.08
2018-11-25T21:46:54.504Z,6.02
2018-11-25T21:49:06.746Z,6.06
2018-11-25T21:51:19.002Z,6.07
2018-11-25T21:53:31.226Z,6.10
2018-11-25T21:55:43.419Z,6.13
2018-11-25T21:57:55.650Z,6.07
2018-11-25T22:00:10.667Z,6.06
2018-11-25T22:02:22.948Z,6.05
2018-11-25T22:04:35.164Z,6.08
2018-11-25T22:06:47.395Z,6.04
2018-11-25T22:08:59.608Z,6.05
2018-11-25T22:11:11.789Z,5.99
2018-11-25T22:13:24.002Z,5.98
2018-11-25T22:15:36.192Z,6.05
2018-11-25T22:17:48.525Z,6.08
2018-11-25T22:20:00.759Z,6.05
2018-11-25T22:22:13.047Z,5.94
2018-11-25T22:24:25.264Z,5.96
2018-11-25T22:26:37.520Z,5.98
2018-11-25T22:28:49.728Z,6.03
2018-11-25T22:31:01.911Z,5.93
2018-11-25T22:33:14.134Z,6.00
2018-11-25T22:35:26.361Z,6.04
2018-11-25T22:37:38.513Z,5.97
2018-11-25T22:39:50.731Z,5.99
2018-11-25T22:42:02.931Z,5.97
2018-11-25T22:44:15.151Z,5.98
2018-11-25T22:46:27.352Z,5.96
2018-11-25T22:48:39.596Z,6.00
2018-11-25T22:50:51.868Z,5.98
2018-11-25T22:53:04.172Z,5.99
2018-11-25T22:55:18.515Z,5.99
2018-11-25T22:57:30.723Z,6.04
2018-11-25T22:59:42.958Z,6.00
2018-11-25T23:01:55.176Z,6.03
2018-11-25T23:04:18.896Z,5.92
2018-11-25T23:06:42.525Z,5.90
2018-11-25T23:08:54.734Z,5.93
2018-11-25T23:11:06.891Z,5.94
2018-11-25T23:13:19.076Z,5.95
2018-11-25T23:15:31.353Z,5.98
2018-11-25T23:17:43.532Z,5.98
2018-11-25T23:19:55.723Z,6.05
2018-11-25T23:22:07.913Z,6.05
2018-11-25T23:24:20.100Z,5.99
2018-11-25T23:26:32.374Z,5.92
2018-11-25T23:28:44.569Z,5.95
2018-11-25T23:30:56.747Z,5.97
2018-11-25T23:33:08.931Z,5.94
2018-11-25T23:35:23.227Z,5.99
2018-11-25T23:37:35.389Z,5.96
2018-11-25T23:39:47.651Z,5.96
2018-11-25T23:41:59.844Z,5.93
2018-11-25T23:44:12.096Z,5.87
2018-11-25T23:46:24.293Z,5.88
2018-11-25T23:48:36.481Z,5.92
2018-11-25T23:50:48.799Z,5.92
2018-11-25T23:53:01.050Z,5.96
2018-11-25T23:55:13.762Z,5.95
2018-11-25T23:57:25.975Z,5.95
2018-11-25T23:59:38.196Z,5.88
